createdAt,value
2018-07-10T00:03:22.679Z,17.70
2018-07-10T00:06:03.343Z,17.60
2018-07-10T00:10:47.312Z,17.60
2018-07-10T00:13:16.724Z,17.60
2018-07-10T00:15:46.005Z,17.50
2018-07-10T00:18:15.377Z,17.50
2018-07-10T00:20:44.641Z,17.50
2018-07-10T00:23:13.895Z,17.50
2018-07-10T00:25:43.143Z,17.50
2018-07-10T00:28:12.437Z,17.40
2018-07-10T00:30:41.699Z,17.50
2018-07-10T00:33:11.007Z,17.50
2018-07-10T00:35:40.219Z,17.40
2018-07-10T00:38:20.173Z,17.40
2018-07-10T00:40:49.532Z,17.40
2018-07-10T00:43:18.898Z,17.40
2018-07-10T00:45:48.149Z,17.40
2018-07-10T00:48:17.435Z,17.40
2018-07-10T00:50:46.819Z,17.40
2018-07-10T00:53:16.109Z,17.40
2018-07-10T00:55:45.344Z,17.40
2018-07-10T00:58:15.053Z,17.40
2018-07-10T01:00:48.391Z,17.40
2018-07-10T01:03:17.914Z,17.30
2018-07-10T01:05:47.483Z,17.30
2018-07-10T01:08:16.895Z,17.30
2018-07-10T01:10:53.699Z,17.20
2018-07-10T01:13:23.170Z,17.20
2018-07-10T01:15:52.406Z,17.20
2018-07-10T01:18:29.007Z,17.20
2018-07-10T01:20:58.239Z,17.20
2018-07-10T01:23:30.972Z,17.20
2018-07-10T01:26:04.070Z,17.10
2018-07-10T01:28:33.518Z,17.10
2018-07-10T01:31:03.149Z,17.10
2018-07-10T01:33:32.420Z,17.10
2018-07-10T01:36:03.939Z,17.10
2018-07-10T01:38:33.698Z,17.10
2018-07-10T01:41:02.972Z,17.10
2018-07-10T01:43:32.599Z,17.10
2018-07-10T01:46:01.928Z,17.10
2018-07-10T01:48:31.246Z,17.00
2018-07-10T01:51:00.749Z,17.00
2018-07-10T01:53:30.153Z,17.00
2018-07-10T01:55:59.428Z,17.00
2018-07-10T01:58:28.951Z,17.00
2018-07-10T02:00:58.171Z,17.00
2018-07-10T02:03:28.266Z,17.00
2018-07-10T02:08:28.763Z,16.90
2018-07-10T02:10:58.124Z,16.90
2018-07-10T02:13:27.391Z,16.90
2018-07-10T02:15:56.823Z,16.80
2018-07-10T02:18:26.136Z,16.80
2018-07-10T02:20:59.040Z,16.70
2018-07-10T02:23:40.948Z,16.70
2018-07-10T02:26:20.592Z,16.70
2018-07-10T02:28:51.169Z,16.70
2018-07-10T02:31:21.380Z,16.70
2018-07-10T02:33:51.484Z,16.60
2018-07-10T02:36:21.850Z,16.60
2018-07-10T02:38:53.249Z,16.60
2018-07-10T02:41:23.777Z,16.60
2018-07-10T02:43:59.072Z,16.50
2018-07-10T02:46:29.907Z,16.50
2018-07-10T02:49:21.883Z,16.50
2018-07-10T02:51:56.690Z,16.50
2018-07-10T02:54:28.531Z,16.40
2018-07-10T02:56:58.480Z,16.40
2018-07-10T02:59:35.251Z,16.30
2018-07-10T03:02:06.032Z,16.30
2018-07-10T03:04:36.816Z,16.30
2018-07-10T03:07:06.211Z,16.30
2018-07-10T03:09:35.566Z,16.20
2018-07-10T03:12:05.297Z,16.20
2018-07-10T03:14:34.753Z,16.20
2018-07-10T03:17:04.107Z,16.20
2018-07-10T03:19:33.473Z,16.20
2018-07-10T03:22:02.841Z,16.20
2018-07-10T03:24:32.163Z,16.20
2018-07-10T03:27:01.536Z,16.20
2018-07-10T03:29:30.843Z,16.10
2018-07-10T03:32:00.157Z,16.10
2018-07-10T03:34:29.452Z,16.20
2018-07-10T03:36:58.861Z,16.20
2018-07-10T03:39:28.179Z,16.10
2018-07-10T03:41:57.647Z,16.10
2018-07-10T03:44:27.423Z,16.10
2018-07-10T03:46:56.784Z,16.10
2018-07-10T03:49:26.042Z,16.10
2018-07-10T03:51:56.283Z,16.10
2018-07-10T03:54:25.711Z,16.10
2018-07-10T03:56:55.092Z,16.00
2018-07-10T03:59:25.008Z,16.00
2018-07-10T04:01:54.512Z,16.10
2018-07-10T04:04:24.139Z,16.00
2018-07-10T04:06:53.615Z,16.00
2018-07-10T04:09:22.943Z,16.10
2018-07-10T04:11:52.936Z,16.00
2018-07-10T04:14:23.999Z,16.00
2018-07-10T04:17:03.425Z,16.10
2018-07-10T04:19:32.815Z,16.10
2018-07-10T04:22:03.058Z,16.10
2018-07-10T04:24:32.380Z,16.10
2018-07-10T04:27:08.311Z,16.20
2018-07-10T04:29:49.548Z,16.20
2018-07-10T04:32:18.920Z,16.20
2018-07-10T04:37:18.091Z,16.30
2018-07-10T04:39:47.491Z,16.30
2018-07-10T04:42:39.434Z,16.30
2018-07-10T04:45:10.928Z,16.30
2018-07-10T04:47:43.899Z,16.30
2018-07-10T04:50:18.138Z,16.30
2018-07-10T04:52:53.696Z,16.30
2018-07-10T04:55:23.042Z,16.40
2018-07-10T04:58:05.028Z,16.40
2018-07-10T05:00:39.528Z,16.40
2018-07-10T05:03:08.958Z,16.40
2018-07-10T05:05:38.303Z,16.40
2018-07-10T05:08:07.618Z,16.40
2018-07-10T05:10:37.267Z,16.50
2018-07-10T05:13:07.602Z,16.50
2018-07-10T05:15:38.199Z,16.50
2018-07-10T05:20:38.340Z,16.60
2018-07-10T05:23:07.782Z,16.60
2018-07-10T05:25:39.900Z,16.60
2018-07-10T05:28:09.320Z,16.60
2018-07-10T05:30:42.152Z,16.70
2018-07-10T05:33:13.201Z,16.70
2018-07-10T05:35:43.503Z,16.70
2018-07-10T05:38:12.827Z,16.80
2018-07-10T05:40:42.215Z,16.80
2018-07-10T05:43:14.908Z,16.80
2018-07-10T05:45:45.286Z,16.90
2018-07-10T05:48:16.835Z,16.90
2018-07-10T05:50:46.257Z,16.90
2018-07-10T05:53:15.647Z,17.00
2018-07-10T05:55:47.383Z,17.00
2018-07-10T05:58:16.731Z,17.00
2018-07-10T06:00:46.007Z,17.10
2018-07-10T06:03:15.835Z,17.10
2018-07-10T06:05:45.196Z,17.10
2018-07-10T06:08:18.223Z,17.20
2018-07-10T06:10:47.611Z,17.20
2018-07-10T06:13:16.955Z,17.20
2018-07-10T06:15:46.351Z,17.20
2018-07-10T06:18:15.812Z,17.30
2018-07-10T06:20:45.263Z,17.30
2018-07-10T06:23:14.603Z,17.30
2018-07-10T06:25:43.960Z,17.40
2018-07-10T06:28:16.545Z,17.40
2018-07-10T06:30:45.929Z,17.40
2018-07-10T06:33:20.734Z,17.50
2018-07-10T06:36:12.455Z,17.60
2018-07-10T06:38:47.887Z,17.60
2018-07-10T06:41:17.572Z,17.70
2018-07-10T06:43:49.842Z,17.70
2018-07-10T06:46:22.797Z,17.70
2018-07-10T06:48:54.623Z,17.80
2018-07-10T06:51:23.927Z,17.80
2018-07-10T06:53:56.360Z,17.80
2018-07-10T06:56:28.820Z,17.80
2018-07-10T06:58:58.403Z,17.80
2018-07-10T07:01:27.706Z,17.80
2018-07-10T07:04:00.464Z,17.80
2018-07-10T07:06:31.285Z,17.80
2018-07-10T07:09:00.667Z,17.80
2018-07-10T07:11:30.352Z,17.70
2018-07-10T07:14:00.014Z,17.70
2018-07-10T07:16:29.455Z,17.70
2018-07-10T07:18:58.868Z,17.60
2018-07-10T07:21:28.252Z,17.60
2018-07-10T07:23:57.532Z,17.60
2018-07-10T07:26:27.031Z,17.60
2018-07-10T07:28:56.388Z,17.60
2018-07-10T07:31:26.545Z,17.60
2018-07-10T07:33:55.897Z,17.60
2018-07-10T07:36:25.172Z,17.60
2018-07-10T07:38:54.573Z,17.60
2018-07-10T07:41:23.988Z,17.60
2018-07-10T07:43:53.335Z,17.70
2018-07-10T07:46:22.819Z,17.70
2018-07-10T07:48:52.154Z,17.70
2018-07-10T07:51:21.553Z,17.70
2018-07-10T07:53:51.768Z,17.70
2018-07-10T07:56:21.319Z,17.70
2018-07-10T07:58:50.767Z,17.70
2018-07-10T08:01:20.110Z,17.70
2018-07-10T08:03:49.490Z,17.70
2018-07-10T08:06:18.802Z,17.70
2018-07-10T08:08:48.202Z,17.70
2018-07-10T08:11:17.573Z,17.80
2018-07-10T08:13:46.935Z,17.80
2018-07-10T08:16:16.298Z,17.80
2018-07-10T08:18:45.610Z,17.80
2018-07-10T08:21:14.942Z,17.80
2018-07-10T08:23:44.347Z,17.80
2018-07-10T08:26:13.720Z,17.80
2018-07-10T08:28:43.198Z,17.80
2018-07-10T08:31:12.442Z,17.80
2018-07-10T08:33:41.930Z,17.70
2018-07-10T08:36:11.035Z,17.70
2018-07-10T08:41:26.000Z,17.70
2018-07-10T08:43:55.698Z,17.70
2018-07-10T08:46:27.915Z,17.70
2018-07-10T08:48:57.335Z,17.80
2018-07-10T08:51:26.684Z,17.80
2018-07-10T08:53:56.435Z,17.80
2018-07-10T08:56:26.107Z,17.90
2018-07-10T08:58:55.501Z,17.90
2018-07-10T09:01:25.395Z,17.90
2018-07-10T09:03:54.761Z,18.00
2018-07-10T09:06:24.023Z,18.00
2018-07-10T09:09:01.572Z,18.00
2018-07-10T09:11:30.911Z,18.00
2018-07-10T09:16:29.272Z,17.80
2018-07-10T09:18:58.747Z,17.60
2018-07-10T09:21:28.103Z,17.50
2018-07-10T09:23:57.511Z,17.30
2018-07-10T09:26:27.726Z,17.20
2018-07-10T09:28:57.223Z,17.10
2018-07-10T09:31:26.655Z,17.00
2018-07-10T09:33:56.208Z,16.90
2018-07-10T09:36:25.568Z,16.90
2018-07-10T09:38:55.307Z,16.80
2018-07-10T09:41:24.621Z,16.90
2018-07-10T09:43:54.273Z,16.90
2018-07-10T09:46:23.599Z,16.90
2018-07-10T09:48:52.895Z,17.00
2018-07-10T09:51:22.232Z,17.10
2018-07-10T09:53:51.590Z,17.10
2018-07-10T09:56:20.914Z,17.10
2018-07-10T09:58:52.184Z,17.10
2018-07-10T10:01:26.788Z,17.10
2018-07-10T10:03:56.934Z,17.00
2018-07-10T10:06:26.219Z,17.00
2018-07-10T10:08:55.667Z,17.10
2018-07-10T10:11:24.919Z,17.10
2018-07-10T10:13:54.235Z,17.10
2018-07-10T10:16:23.603Z,17.10
2018-07-10T10:18:56.302Z,17.10
2018-07-10T10:21:28.152Z,17.20
2018-07-10T10:23:59.367Z,17.30
2018-07-10T10:26:29.239Z,17.30
2018-07-10T10:28:58.680Z,17.50
2018-07-10T10:31:28.070Z,17.50
2018-07-10T10:33:57.406Z,17.60
2018-07-10T10:36:26.711Z,17.60
2018-07-10T10:38:56.001Z,17.50
2018-07-10T10:41:25.337Z,17.50
2018-07-10T10:43:54.665Z,17.50
2018-07-10T10:46:24.092Z,17.50
2018-07-10T10:48:54.094Z,17.50
2018-07-10T10:51:24.042Z,17.50
2018-07-10T10:53:53.515Z,17.40
2018-07-10T10:56:22.940Z,17.40
2018-07-10T10:58:52.610Z,17.30
2018-07-10T11:01:21.994Z,17.30
2018-07-10T11:03:51.399Z,17.30
2018-07-10T11:06:21.277Z,17.20
2018-07-10T11:08:50.559Z,17.20
2018-07-10T11:11:20.051Z,17.10
2018-07-10T11:13:49.432Z,17.10
2018-07-10T11:16:18.903Z,17.10
2018-07-10T11:19:56.159Z,17.10
2018-07-10T11:22:25.538Z,17.10
2018-07-10T11:25:10.727Z,17.00
2018-07-10T11:27:55.789Z,17.00
2018-07-10T11:30:25.076Z,17.00
2018-07-10T11:32:54.455Z,17.00
2018-07-10T11:35:24.053Z,17.10
2018-07-10T11:37:53.518Z,17.10
2018-07-10T11:40:23.039Z,17.10
2018-07-10T11:42:52.380Z,17.20
2018-07-10T11:45:22.359Z,17.20
2018-07-10T11:47:51.858Z,17.20
2018-07-10T11:50:21.149Z,17.20
2018-07-10T11:52:50.471Z,17.30
2018-07-10T11:55:19.740Z,17.40
2018-07-10T11:57:49.775Z,17.50
2018-07-10T12:00:19.782Z,17.60
2018-07-10T12:02:50.112Z,17.70
2018-07-10T12:05:20.827Z,17.80
2018-07-10T12:07:54.901Z,17.80
2018-07-10T12:10:26.331Z,17.90
2018-07-10T12:12:55.819Z,17.90
2018-07-10T12:15:25.579Z,17.90
2018-07-10T12:17:56.790Z,18.00
2018-07-10T12:20:30.079Z,18.00
2018-07-10T12:23:00.571Z,18.00
2018-07-10T12:25:40.904Z,18.00
2018-07-10T12:28:11.661Z,18.00
2018-07-10T12:30:41.115Z,18.00
2018-07-10T12:33:10.658Z,17.90
2018-07-10T12:35:40.086Z,17.80
2018-07-10T12:38:09.414Z,17.80
2018-07-10T12:40:38.743Z,17.80
2018-07-10T12:43:08.090Z,17.70
2018-07-10T12:45:37.507Z,17.70
2018-07-10T12:48:06.848Z,17.60
2018-07-10T12:50:36.218Z,17.70
2018-07-10T12:53:05.570Z,17.70
2018-07-10T12:55:35.994Z,17.70
2018-07-10T12:58:05.506Z,17.70
2018-07-10T13:00:36.807Z,17.70
2018-07-10T13:03:07.684Z,17.70
2018-07-10T13:05:48.307Z,17.60
2018-07-10T13:08:18.143Z,17.60
2018-07-10T13:10:47.584Z,17.60
2018-07-10T13:13:17.267Z,17.60
2018-07-10T13:15:46.735Z,17.60
2018-07-10T13:18:17.295Z,17.50
2018-07-10T13:20:46.724Z,17.60
2018-07-10T13:23:16.139Z,17.50
2018-07-10T13:25:45.439Z,17.50
2018-07-10T13:28:14.835Z,17.50
2018-07-10T13:30:44.424Z,17.50
2018-07-10T13:33:13.681Z,17.40
2018-07-10T13:35:43.163Z,17.40
2018-07-10T13:38:13.463Z,17.40
2018-07-10T13:40:42.884Z,17.40
2018-07-10T13:43:12.242Z,17.30
2018-07-10T13:45:41.568Z,17.30
2018-07-10T13:48:10.895Z,17.20
2018-07-10T13:50:40.295Z,17.20
2018-07-10T13:53:09.642Z,17.20
2018-07-10T13:55:38.962Z,17.20
2018-07-10T13:58:12.419Z,17.20
2018-07-10T14:00:45.085Z,17.20
2018-07-10T14:03:14.497Z,17.20
2018-07-10T14:05:43.852Z,17.30
2018-07-10T14:08:13.192Z,17.40
2018-07-10T14:10:42.547Z,17.50
2018-07-10T14:13:11.963Z,17.60
2018-07-10T14:15:42.071Z,17.80
2018-07-10T14:18:11.651Z,18.10
2018-07-10T14:20:48.238Z,18.30
2018-07-10T14:23:17.703Z,18.40
2018-07-10T14:25:47.624Z,18.60
2018-07-10T14:28:16.901Z,18.70
2018-07-10T14:30:46.242Z,18.70
2018-07-10T14:33:15.546Z,18.80
2018-07-10T14:35:44.899Z,18.80
2018-07-10T14:38:17.291Z,18.70
2018-07-10T14:40:50.157Z,18.60
2018-07-10T14:43:50.309Z,18.50
2018-07-10T14:46:23.126Z,18.50
2018-07-10T14:48:59.079Z,18.40
2018-07-10T14:51:36.794Z,18.30
2018-07-10T14:54:06.216Z,18.30
2018-07-10T14:56:35.919Z,18.30
2018-07-10T14:59:05.469Z,18.30
2018-07-10T15:01:34.879Z,18.20
2018-07-10T15:04:04.188Z,18.20
2018-07-10T15:06:33.488Z,18.20
2018-07-10T15:09:03.076Z,18.20
2018-07-10T15:11:32.571Z,18.10
2018-07-10T15:14:04.497Z,18.10
2018-07-10T15:16:39.043Z,18.10
2018-07-10T15:19:08.414Z,18.10
2018-07-10T15:21:37.645Z,18.10
2018-07-10T15:24:08.145Z,18.00
2018-07-10T15:26:37.460Z,18.10
2018-07-10T15:29:06.667Z,18.00
2018-07-10T15:31:36.003Z,18.00
2018-07-10T15:34:05.411Z,18.00
2018-07-10T15:36:34.711Z,18.00
2018-07-10T15:39:05.119Z,18.00
2018-07-10T15:41:34.366Z,18.10
2018-07-10T15:44:03.679Z,18.10
2018-07-10T15:46:33.013Z,18.20
2018-07-10T15:49:02.460Z,18.20
2018-07-10T15:51:32.082Z,18.20
2018-07-10T15:54:04.005Z,18.30
2018-07-10T15:56:33.287Z,18.40
2018-07-10T16:01:31.526Z,18.40
2018-07-10T16:04:00.869Z,18.40
2018-07-10T16:06:31.925Z,18.40
2018-07-10T16:09:08.911Z,18.40
2018-07-10T16:11:39.488Z,18.40
2018-07-10T16:14:08.905Z,18.40
2018-07-10T16:16:38.465Z,18.50
2018-07-10T16:19:10.661Z,18.40
2018-07-10T16:21:58.693Z,18.40
2018-07-10T16:24:29.959Z,18.40
2018-07-10T16:26:59.256Z,18.40
2018-07-10T16:29:28.647Z,18.40
2018-07-10T16:32:00.407Z,18.40
2018-07-10T16:34:30.009Z,18.40
2018-07-10T16:36:59.791Z,18.40
2018-07-10T16:39:29.839Z,18.40
2018-07-10T16:42:04.163Z,18.50
2018-07-10T16:44:36.891Z,18.50
2018-07-10T16:47:08.815Z,18.50
2018-07-10T16:49:44.762Z,18.60
2018-07-10T16:55:07.495Z,18.60
2018-07-10T16:57:36.623Z,18.60
2018-07-10T17:00:05.954Z,18.60
2018-07-10T17:02:38.066Z,18.60
2018-07-10T17:05:07.458Z,18.60
2018-07-10T17:07:37.773Z,18.50
2018-07-10T17:10:07.179Z,18.50
2018-07-10T17:12:36.664Z,18.40
2018-07-10T17:15:22.334Z,18.40
2018-07-10T17:17:51.664Z,18.40
2018-07-10T17:20:20.928Z,18.40
2018-07-10T17:22:50.371Z,18.30
2018-07-10T17:25:19.756Z,18.30
2018-07-10T17:27:50.399Z,18.30
2018-07-10T17:30:19.683Z,18.20
2018-07-10T17:32:49.032Z,18.20
2018-07-10T17:35:18.383Z,18.20
2018-07-10T17:37:49.303Z,18.20
2018-07-10T17:40:19.019Z,18.20
2018-07-10T17:42:50.228Z,18.10
2018-07-10T17:45:22.723Z,18.10
2018-07-10T17:47:52.294Z,18.00
2018-07-10T17:50:22.308Z,18.00
2018-07-10T17:52:51.551Z,18.00
2018-07-10T17:55:41.533Z,18.00
2018-07-10T17:58:10.872Z,17.90
2018-07-10T18:00:40.178Z,17.90
2018-07-10T18:03:10.740Z,17.80
2018-07-10T18:05:40.648Z,17.80
2018-07-10T18:08:09.903Z,17.80
2018-07-10T18:10:40.010Z,17.70
2018-07-10T18:13:09.315Z,17.70
2018-07-10T18:15:39.040Z,17.70
2018-07-10T18:18:30.516Z,17.70
2018-07-10T18:21:00.134Z,17.60
2018-07-10T18:23:29.395Z,17.60
2018-07-10T18:25:58.700Z,17.50
2018-07-10T18:28:27.972Z,17.50
2018-07-10T18:30:57.267Z,17.40
2018-07-10T18:33:27.127Z,17.30
2018-07-10T18:35:56.755Z,17.30
2018-07-10T18:38:26.172Z,17.20
2018-07-10T18:40:55.750Z,17.20
2018-07-10T18:43:28.045Z,17.20
2018-07-10T18:45:57.101Z,17.10
2018-07-10T18:48:27.599Z,17.10
2018-07-10T18:50:57.687Z,17.10
2018-07-10T18:53:27.481Z,17.00
2018-07-10T18:55:56.803Z,17.00
2018-07-10T18:58:49.522Z,16.90
2018-07-10T19:01:27.188Z,16.80
2018-07-10T19:03:56.943Z,16.80
2018-07-10T19:06:26.283Z,16.70
2018-07-10T19:08:55.890Z,16.70
2018-07-10T19:11:27.270Z,16.70
2018-07-10T19:14:03.115Z,16.60
2018-07-10T19:16:32.863Z,16.60
2018-07-10T19:21:35.014Z,16.50
2018-07-10T19:24:06.637Z,16.40
2018-07-10T19:26:37.647Z,16.30
2018-07-10T19:30:11.093Z,16.30
2018-07-10T19:32:40.283Z,16.30
2018-07-10T19:35:10.002Z,16.20
2018-07-10T19:37:40.201Z,16.20
2018-07-10T19:40:09.605Z,16.20
2018-07-10T19:42:40.008Z,16.10
2018-07-10T19:45:10.603Z,16.10
2018-07-10T19:47:40.961Z,16.10
2018-07-10T19:50:20.893Z,16.10
2018-07-10T19:52:55.106Z,16.00
2018-07-10T19:55:27.783Z,16.00
2018-07-10T19:58:32.157Z,15.90
2018-07-10T20:01:17.382Z,15.90
2018-07-10T20:04:52.653Z,15.80
2018-07-10T20:07:29.203Z,15.70
2018-07-10T20:10:11.240Z,15.60
2018-07-10T20:12:47.595Z,15.60
2018-07-10T20:15:25.032Z,15.50
2018-07-10T20:18:02.405Z,15.50
2018-07-10T20:20:34.835Z,15.50
2018-07-10T20:23:16.055Z,15.40
2018-07-10T20:26:00.654Z,15.40
2018-07-10T20:29:53.026Z,15.30
2018-07-10T20:32:30.900Z,15.30
2018-07-10T20:35:10.441Z,15.20
2018-07-10T20:37:39.887Z,15.20
2018-07-10T20:40:09.174Z,15.20
2018-07-10T20:42:41.689Z,15.10
2018-07-10T20:45:10.882Z,15.10
2018-07-10T20:47:48.165Z,15.10
2018-07-10T20:50:21.784Z,15.10
2018-07-10T20:52:59.294Z,15.10
2018-07-10T20:55:35.139Z,15.10
2018-07-10T20:58:08.115Z,15.10
2018-07-10T21:00:40.639Z,15.10
2018-07-10T21:03:15.884Z,15.10
2018-07-10T21:05:49.248Z,15.10
2018-07-10T21:08:28.062Z,15.10
2018-07-10T21:11:01.191Z,15.00
2018-07-10T21:13:43.027Z,15.00
2018-07-10T21:16:22.826Z,15.00
2018-07-10T21:19:01.348Z,15.00
2018-07-10T21:23:49.902Z,15.00
2018-07-10T21:26:32.327Z,15.00
2018-07-10T21:29:10.076Z,14.90
2018-07-10T21:32:16.590Z,14.90
2018-07-10T21:34:50.914Z,14.90
2018-07-10T21:37:26.132Z,14.90
2018-07-10T21:40:06.462Z,14.90
2018-07-10T21:42:43.795Z,14.90
2018-07-10T21:45:22.585Z,14.90
2018-07-10T21:48:04.045Z,15.00
2018-07-10T21:50:42.822Z,15.00
2018-07-10T21:53:12.355Z,15.00
2018-07-10T21:55:41.462Z,15.00
2018-07-10T21:58:10.598Z,14.90
2018-07-10T22:02:55.246Z,14.90
2018-07-10T22:05:24.376Z,14.90
2018-07-10T22:07:53.537Z,14.80
2018-07-10T22:10:22.863Z,14.70
2018-07-10T22:12:52.934Z,14.60
2018-07-10T22:15:22.551Z,14.60
2018-07-10T22:17:53.664Z,14.50
2018-07-10T22:20:23.104Z,14.50
2018-07-10T22:22:52.610Z,14.40
2018-07-10T22:25:21.952Z,14.40
2018-07-10T22:27:51.472Z,14.40
2018-07-10T22:30:25.899Z,14.30
2018-07-10T22:33:05.996Z,14.30
2018-07-10T22:35:35.291Z,14.30
2018-07-10T22:38:05.619Z,14.20
2018-07-10T22:40:34.960Z,14.20
2018-07-10T22:43:04.259Z,14.10
2018-07-10T22:45:33.863Z,14.10
2018-07-10T22:48:03.192Z,14.10
2018-07-10T22:50:32.556Z,14.10
2018-07-10T22:53:02.571Z,14.10
2018-07-10T22:55:33.147Z,14.10
2018-07-10T22:58:07.913Z,14.10
2018-07-10T23:00:38.444Z,14.10
2018-07-10T23:03:24.615Z,14.10
2018-07-10T23:05:54.967Z,14.10
2018-07-10T23:08:31.636Z,14.00
2018-07-10T23:11:02.975Z,14.00
2018-07-10T23:13:35.795Z,14.00
2018-07-10T23:16:04.935Z,14.00
2018-07-10T23:18:34.251Z,13.90
2018-07-10T23:21:04.576Z,13.90
2018-07-10T23:23:33.934Z,13.80
2018-07-10T23:26:03.214Z,13.80
2018-07-10T23:28:32.931Z,13.80
2018-07-10T23:31:03.820Z,13.70
2018-07-10T23:33:33.231Z,13.70
2018-07-10T23:36:03.859Z,13.70
2018-07-10T23:41:23.823Z,13.70
2018-07-10T23:43:54.873Z,13.70
2018-07-10T23:46:34.982Z,13.60
2018-07-10T23:49:15.583Z,13.60
2018-07-10T23:51:55.644Z,13.60
2018-07-10T23:54:24.942Z,13.60
2018-07-10T23:56:54.243Z,13.60
2018-07-10T23:59:23.615Z,13.60
